Ojai, CA

1:01 PM PST on November 22, 2019 (GMT -0800)
Besant Hill School, Upper Ojai | | Change Station

Elev 1348 ft 34.44 °N, 119.19 °W | Updated 13 seconds ago

Clear
Clear
70 °F
Feels Like 70 °F
N
6.3
Wind Variable Wind from South
Gusts 0.0 mph

Today
High -- | Low -- °F
--% Chance of Precip.
Yesterday
High -- | Low -- °F
Precip. -- in
Pressure 30.10 in
Visibility 10.0 miles
Clouds Clear
Dew Point 48 °F
Humidity 45%
Rainfall 0.00 in
Snow Depth Not available.
6:36 AM 4:48 PM
Waning Crescent, 18% visible
METAR KOXR 222051Z 21009KT 10SM CLR 18/10 A3010 RMK AO2 SLP193 T01780100 58020
Pressure 30.10 in
Visibility 10.0 miles
Clouds Clear
Dew Point 48 °F
Humidity 45%
Rainfall 0.00 in
Snow Depth Not available.
6:36 AM 4:48 PM
Waning Crescent, 18% visible
METAR KOXR 222051Z 21009KT 10SM CLR 18/10 A3010 RMK AO2 SLP193 T01780100 58020

Get Severe Weather Alerts

Thanks for signing up!

Be on the lookout for a verification email in your inbox.

You'll start receiving the daily forecast at 6 AM.

×

10-Day Weather Forecast

Almanac

Astronomy

Nov. 22, 2019 Rise Set
Actual Time
Civil Twilight
Nautical Twilight
Astronomical Twilight
Moon
Length of Visible Light
Length of Day
Tomorrow will be .
, % of the Moon is Illuminated

Today's Extremes

State Highs State Lows

Community

WunderPhotos

Category 6

Welcome to Category 6. This is the collective home for Weather Underground's featured writeups by Dr. Jeff Masters (right), Bob Henson (left), Chris Burt, and other regular contributors.

Nearby

Air Quality

  Air Quality AQ Index Pollutant
Not available.

Snow Depth

Station Depth Elevation

Earthquake Activity

City Distance Mag. Time & Date
Minimum magnitude displayed is 2.5.

Coastal Water Temperatures

Place Temperature

Stations

Nearby Weather Stations

Station Location Temp. Windchill Dew Point Humidity Wind Precip. Elev Updated Type
                   

Watches & Warnings

There are currently no watches in effect.